Impacts METAR Board
IDs:

KAUS - Austin/Bergstrom Int, TX, US

Updated at: 0000 UTC 19 Oct 2019
Potential Impact None Slight Moderate High
Time 18/12Z 18/13Z 18/14Z 18/15Z 18/16Z 18/17Z 18/18Z 18/19Z 18/20Z 18/21Z 18/22Z 18/23Z 19/00Z
Temp48 49 57 62 66 71 75 79 81 84 84 83 79
Dewpt46 46 49 50 49 45 47 47 49 52 55 55 55
Altim29.90 29.89 29.90 29.91 29.89 29.86 29.83 29.79 29.76 29.73 29.72 29.71 29.71
VIS10 10 10 10 10 10 10 10 10 10 10 10 10
CIG-- -- -- -- -- -- -- -- -- -- -- -- --
CoverCLRCLRCLRCLRCLRCLRCLRCLRCLRCLRCLRCLRCLR
FltCatVFRVFRVFRVFRVFRVFRVFRVFRVFRVFRVFRVFRVFR
WX--------------------------
WDir00000000120130170170170
WSpd0 0 0 0 4 5 0 0 3 10 7 7 12
WGst-- -- -- -- -- -- -- -- -- -- -- -- --
Raw hourly METARs
KAUS 181153Z 00000KT 10SM CLR 09/08 A2990 RMK AO2 SLP121 T00890078 10117 20083 56003
KAUS 181253Z 00000KT 10SM CLR 09/08 A2989 RMK AO2 SLP122 T00940078
KAUS 181353Z 00000KT 10SM CLR 14/09 A2990 RMK AO2 SLP124 T01390094
KAUS 181453Z 00000KT 10SM CLR 17/10 A2991 RMK AO2 SLP126 T01670100 53004
KAUS 181553Z VRB04KT 10SM CLR 19/09 A2989 RMK AO2 SLP119 T01890094
KAUS 181653Z VRB05KT 10SM CLR 22/07 A2986 RMK AO2 SLP109 T02170072
KAUS 181753Z 00000KT 10SM CLR 24/08 A2983 RMK AO2 SLP098 T02390083 10244 20089 58026
KAUS 181853Z 00000KT 10SM CLR 26/08 A2979 RMK AO2 SLP083 T02610083 $
KAUS 181953Z 12003KT 10SM CLR 27/09 A2976 RMK AO2 SLP071 T02720094 $
KAUS 182053Z 13010KT 10SM CLR 29/11 A2973 RMK AO2 SLP062 T02890111 56034 $
KAUS 182153Z 17007KT 10SM CLR 29/13 A2972 RMK AO2 SLP057 T02890128 $
KAUS 182253Z 17007KT 10SM CLR 28/13 A2971 RMK AO2 SLP056 T02830128 $
KAUS 182353Z 17012KT 10SM CLR 26/13 A2971 RMK AO2 SLP057 T02610128 10294 20239 55006 $